Time;durP1;ratioP1;P1;durP2;ratioP2;P2;SDS_P1;SDS_P2;PMS_P1;PMS_P2;Temp;Humidity;BMP_temperature;BMP_pressure;BME280_temperature;BME280_humidity;BME280_pressure;Samples;Min_cycle;Max_cycle;Signal;HPM_P1;HPM_P2
2023/09/15 00:01:39;;;;;;;11.55;8.00;;;;;;;15.90;72.25;101893.13;5115711;28;20032;-59
2023/09/15 00:04:06;;;;;;;9.35;7.57;;;;;;;15.82;72.64;101895.75;5115413;28;20067;-60
2023/09/15 00:06:35;;;;;;;9.13;7.60;;;;;;;15.81;72.75;101901.97;5115728;28;20115;-59
2023/09/15 00:09:04;;;;;;;8.93;7.15;;;;;;;15.71;72.50;101894.75;5115431;28;20032;-60
2023/09/15 00:11:39;;;;;;;11.75;7.00;;;;;;;15.69;72.89;101894.78;5115322;28;20016;-59
2023/09/15 00:14:14;;;;;;;10.40;6.55;;;;;;;15.70;72.63;101893.88;5098786;28;20036;-60
2023/09/15 00:16:44;;;;;;;9.73;6.60;;;;;;;15.64;72.94;101890.28;5115327;28;20036;-59
2023/09/15 00:19:14;;;;;;;8.93;6.80;;;;;;;15.58;72.83;101887.53;5115316;28;20036;-60
2023/09/15 00:21:44;;;;;;;7.90;6.63;;;;;;;15.65;72.97;101886.75;5115404;28;20059;-60
2023/09/15 00:24:10;;;;;;;11.50;8.68;;;;;;;15.70;73.89;101891.22;5115124;28;20035;-60
2023/09/15 00:26:35;;;;;;;11.35;8.27;;;;;;;15.68;73.77;101889.44;5113845;28;20032;-60
2023/09/15 00:29:04;;;;;;;10.43;7.97;;;;;;;15.61;73.46;101885.78;5115351;28;20068;-59
2023/09/15 00:31:30;;;;;;;10.32;8.20;;;;;;;15.66;73.67;101883.19;5115013;28;20094;-59
2023/09/15 00:33:55;;;;;;;13.57;8.60;;;;;;;15.67;73.64;101883.22;5114841;28;20059;-59
2023/09/15 00:36:21;;;;;;;11.60;8.25;;;;;;;15.60;73.43;101880.47;5114761;28;20039;-59
2023/09/15 00:38:47;;;;;;;13.57;8.32;;;;;;;15.55;73.84;101882.22;5114781;28;20358;-61
2023/09/15 00:41:13;;;;;;;9.55;7.72;;;;;;;15.51;73.57;101873.31;5114858;28;20015;-59
2023/09/15 00:43:39;;;;;;;9.95;7.85;;;;;;;15.56;73.80;101871.56;5114501;28;20469;-60
2023/09/15 00:46:06;;;;;;;12.00;7.97;;;;;;;15.47;73.56;101869.72;5114618;28;20028;-59
2023/09/15 00:48:32;;;;;;;11.30;8.30;;;;;;;15.37;74.10;101875.84;5114614;28;20020;-60
2023/09/15 00:50:58;;;;;;;10.45;8.07;;;;;;;15.30;74.37;101875.81;5114747;28;20049;-60
2023/09/15 00:53:24;;;;;;;10.65;8.13;;;;;;;15.23;74.34;101873.09;5114465;28;20103;-59
2023/09/15 00:55:53;;;;;;;10.55;7.82;;;;;;;15.25;74.49;101873.13;5114729;28;20031;-60
2023/09/15 00:58:19;;;;;;;10.05;7.60;;;;;;;15.18;73.72;101874.81;5114685;28;20035;-59
2023/09/15 01:00:45;;;;;;;12.50;7.82;;;;;;;15.12;74.20;101874.78;5114725;28;20032;-60
2023/09/15 01:03:13;;;;;;;10.43;7.88;;;;;;;15.06;74.60;101880.03;5114392;28;20032;-60
2023/09/15 01:05:40;;;;;;;10.05;8.20;;;;;;;15.04;74.97;101873.81;5114307;28;20483;-59
2023/09/15 01:08:07;;;;;;;9.13;7.88;;;;;;;15.00;74.64;101867.56;5114231;28;20111;-60
2023/09/15 01:10:33;;;;;;;10.60;7.45;;;;;;;15.01;74.89;101871.13;5114294;28;20515;-59
2023/09/15 01:12:59;;;;;;;12.88;8.48;;;;;;;14.95;74.86;101865.75;5113878;28;20027;-59
2023/09/15 01:15:44;;;;;;;10.75;8.00;;;;;;;14.97;75.18;101859.56;5096104;28;20073;-59
2023/09/15 01:18:37;;;;;;;10.10;7.78;;;;;;;14.95;75.12;101861.31;5114171;28;20024;-60
2023/09/15 01:21:18;;;;;;;11.73;7.22;;;;;;;14.93;75.03;101860.41;5114032;28;20492;-59
2023/09/15 01:24:00;;;;;;;10.10;7.38;;;;;;;14.90;74.74;101864.81;5114387;28;20043;-59
2023/09/15 01:27:07;;;;;;;11.48;7.45;;;;;;;14.93;74.09;101849.75;5113758;28;20084;-59
2023/09/15 01:29:44;;;;;;;10.73;8.40;;;;;;;14.94;75.19;101858.63;5073868;28;20117;-59
2023/09/15 01:32:12;;;;;;;11.57;7.78;;;;;;;14.97;74.47;101851.56;5113932;28;20030;-59
2023/09/15 01:34:39;;;;;;;9.63;7.88;;;;;;;14.84;75.00;101852.34;5114062;28;20369;-60
2023/09/15 01:37:04;;;;;;;10.18;7.85;;;;;;;14.78;75.51;101852.31;5113427;28;20379;-60
2023/09/15 01:39:30;;;;;;;10.30;7.60;;;;;;;14.78;75.43;101849.63;5113993;28;20062;-59
2023/09/15 01:42:00;;;;;;;8.95;7.25;;;;;;;14.74;75.83;101842.50;5113690;28;20023;-59
2023/09/15 01:44:26;;;;;;;9.70;6.85;;;;;;;14.63;76.13;101837.06;5113596;28;20039;-59
2023/09/15 01:46:51;;;;;;;8.23;6.40;;;;;;;14.60;75.49;101845.00;5113652;28;20027;-59
2023/09/15 01:49:21;;;;;;;8.63;6.90;;;;;;;14.62;75.32;101843.25;5113739;28;20019;-59
2023/09/15 01:51:48;;;;;;;9.18;7.10;;;;;;;14.58;75.89;101844.09;5113462;28;20041;-59
2023/09/15 01:54:15;;;;;;;9.82;7.13;;;;;;;14.62;75.92;101837.94;5113566;28;20092;-60
2023/09/15 01:56:40;;;;;;;9.60;6.80;;;;;;;14.50;76.00;101843.13;5095319;28;20038;-59
2023/09/15 01:59:06;;;;;;;8.93;6.47;;;;;;;14.47;76.01;101840.41;5113532;28;20027;-60
2023/09/15 02:01:31;;;;;;;9.95;7.20;;;;;;;14.43;76.40;101841.25;5113542;28;20019;-60
2023/09/15 02:03:57;;;;;;;9.70;7.60;;;;;;;14.43;76.97;101838.56;5113389;28;20114;-61
2023/09/15 02:06:22;;;;;;;9.07;7.28;;;;;;;14.45;76.81;101827.09;5113467;28;20103;-59
2023/09/15 02:08:48;;;;;;;9.07;6.82;;;;;;;14.40;76.30;101835.91;5113389;28;20431;-60
2023/09/15 02:11:14;;;;;;;8.95;7.15;;;;;;;14.30;76.50;101837.56;5113452;28;20077;-60
2023/09/15 02:13:41;;;;;;;9.45;7.43;;;;;;;14.35;76.53;101837.63;5113135;28;20016;-59
2023/09/15 02:16:06;;;;;;;11.25;7.60;;;;;;;14.29;76.52;101841.97;5113360;28;20030;-59
2023/09/15 02:18:32;;;;;;;16.05;8.52;;;;;;;14.22;77.41;101836.59;5113378;28;20024;-60
2023/09/15 02:20:57;;;;;;;10.52;8.10;;;;;;;14.26;77.49;101833.06;5113278;28;20016;-58
2023/09/15 02:23:24;;;;;;;10.93;7.75;;;;;;;14.27;76.65;101834.88;5113405;28;20023;-59
2023/09/15 02:25:50;;;;;;;11.23;7.40;;;;;;;14.28;76.41;101841.97;5113253;28;20023;-59
2023/09/15 02:28:16;;;;;;;9.65;7.50;;;;;;;14.28;76.18;101839.31;5112841;28;20535;-59
2023/09/15 02:30:41;;;;;;;8.95;7.63;;;;;;;14.31;75.54;101835.81;5113486;28;20032;-59
2023/09/15 02:33:07;;;;;;;11.65;8.35;;;;;;;14.39;76.77;101834.09;5113582;28;20068;-60
2023/09/15 02:35:32;;;;;;;10.27;8.05;;;;;;;14.35;76.04;101830.53;5113142;28;20027;-59
2023/09/15 02:37:57;;;;;;;9.63;7.85;;;;;;;14.34;76.07;101827.84;5113309;28;20028;-59
2023/09/15 02:40:23;;;;;;;12.02;7.88;;;;;;;14.25;75.70;101820.66;5113084;28;20033;-59
2023/09/15 02:42:49;;;;;;;12.77;7.60;;;;;;;14.15;76.87;101818.78;5113044;28;20430;-59
2023/09/15 02:45:14;;;;;;;8.43;7.03;;;;;;;14.11;76.36;101820.50;5113242;28;20035;-59
2023/09/15 02:47:40;;;;;;;7.38;6.07;;;;;;;13.97;76.54;101814.16;5113261;28;20032;-59
2023/09/15 02:50:07;;;;;;;8.23;6.60;;;;;;;13.96;76.77;101820.31;5115665;28;20042;-59
2023/09/15 02:52:33;;;;;;;7.90;5.80;;;;;;;13.92;76.76;101815.88;5117122;28;20020;-59
2023/09/15 02:54:58;;;;;;;7.22;5.78;;;;;;;13.90;76.25;101820.25;5116910;28;20047;-59
2023/09/15 02:57:24;;;;;;;9.32;6.45;;;;;;;13.93;77.15;101821.19;5116861;28;20028;-60
2023/09/15 02:59:51;;;;;;;8.35;5.85;;;;;;;13.86;76.75;101819.31;5116807;28;20028;-60
2023/09/15 03:02:17;;;;;;;10.60;6.00;;;;;;;13.87;77.21;101821.09;5116822;28;20024;-59
2023/09/15 03:04:46;;;;;;;7.05;5.65;;;;;;;13.84;77.38;101821.06;5116675;28;20028;-59
2023/09/15 03:07:11;;;;;;;8.27;5.80;;;;;;;13.86;77.20;101819.31;5116819;28;20031;-58
2023/09/15 03:09:37;;;;;;;7.18;5.32;;;;;;;13.84;76.57;101813.09;5116675;28;20500;-58
2023/09/15 03:12:02;;;;;;;10.13;6.18;;;;;;;13.85;76.53;101808.69;5116621;28;20038;-59
2023/09/15 03:14:28;;;;;;;7.20;6.05;;;;;;;13.85;76.73;101812.22;5116439;28;20127;-60
2023/09/15 03:16:53;;;;;;;9.35;6.93;;;;;;;13.82;76.61;101813.94;5116410;28;20541;-60
2023/09/15 03:19:19;;;;;;;8.73;7.15;;;;;;;13.80;76.77;101810.38;5116319;28;20024;-59
2023/09/15 03:21:45;;;;;;;9.05;6.88;;;;;;;13.80;76.73;101815.69;5116262;28;20031;-59
2023/09/15 03:24:11;;;;;;;9.45;6.95;;;;;;;13.77;76.82;101804.16;5116397;28;20076;-59
2023/09/15 03:26:38;;;;;;;9.20;6.97;;;;;;;13.78;77.02;101805.91;5116132;28;20106;-59
2023/09/15 03:29:04;;;;;;;11.13;7.70;;;;;;;13.83;77.38;101803.31;5116286;28;20034;-60
2023/09/15 03:31:29;;;;;;;7.90;6.63;;;;;;;13.82;76.55;101805.97;5097946;28;20024;-59
2023/09/15 03:33:55;;;;;;;8.93;6.40;;;;;;;13.76;76.14;101798.81;5116301;28;20088;-59
2023/09/15 03:36:21;;;;;;;8.85;6.38;;;;;;;13.66;75.95;101797.81;5115997;28;20028;-60
2023/09/15 03:38:47;;;;;;;8.48;6.03;;;;;;;13.63;75.72;101803.09;5116253;28;20100;-59
2023/09/15 03:41:12;;;;;;;7.50;6.00;;;;;;;13.63;75.81;101789.81;5115976;28;20027;-60
2023/09/15 03:43:37;;;;;;;8.57;6.03;;;;;;;13.67;76.34;101796.06;5115805;28;20108;-59
2023/09/15 03:46:03;;;;;;;8.70;5.60;;;;;;;13.64;75.78;101793.34;5115943;28;20027;-59
2023/09/15 03:48:29;;;;;;;6.88;5.22;;;;;;;13.57;76.19;101788.81;5116071;28;20140;-59
2023/09/15 03:50:55;;;;;;;9.15;5.70;;;;;;;13.54;76.34;101795.00;5115864;28;20477;-60
2023/09/15 03:53:20;;;;;;;9.75;5.50;;;;;;;13.42;76.67;101790.41;5115667;28;20496;-59
2023/09/15 03:55:48;;;;;;;6.45;4.95;;;;;;;13.40;76.79;101799.19;5115912;28;20127;-60
2023/09/15 03:58:14;;;;;;;5.72;4.93;;;;;;;13.39;77.33;101792.09;5097449;28;20038;-59
2023/09/15 04:00:39;;;;;;;7.22;4.85;;;;;;;13.42;77.42;101792.16;5115475;28;20027;-60
2023/09/15 04:03:05;;;;;;;7.80;4.72;;;;;;;13.35;76.99;101787.63;5115698;28;20024;-58
2023/09/15 04:05:30;;;;;;;5.45;4.65;;;;;;;13.26;76.92;101791.91;5115563;28;20462;-59
2023/09/15 04:07:56;;;;;;;8.95;6.22;;;;;;;13.22;78.30;101791.81;5080249;28;20028;-59
2023/09/15 04:10:22;;;;;;;6.60;5.15;;;;;;;13.19;77.20;101794.41;5097540;28;20024;-59
2023/09/15 04:12:49;;;;;;;8.57;5.60;;;;;;;13.15;77.73;101793.50;5115381;28;20485;-59
2023/09/15 04:15:15;;;;;;;10.93;5.97;;;;;;;13.06;78.12;101785.41;5115026;28;20054;-60
2023/09/15 04:17:44;;;;;;;7.68;5.55;;;;;;;13.13;77.70;101789.91;5115065;28;20031;-59
2023/09/15 04:20:10;;;;;;;9.25;5.40;;;;;;;13.17;77.56;101790.88;5114999;28;20035;-59
2023/09/15 04:22:40;;;;;;;8.05;5.45;;;;;;;13.21;78.27;101782.97;5096680;28;20477;-59
2023/09/15 04:25:07;;;;;;;7.05;4.80;;;;;;;13.24;77.68;101782.19;5115062;28;20527;-58
2023/09/15 04:27:33;;;;;;;8.98;5.90;;;;;;;13.21;78.38;101779.44;5114587;28;20050;-59
2023/09/15 04:29:59;;;;;;;10.23;5.25;;;;;;;13.26;77.44;101780.41;5114995;28;20031;-60
2023/09/15 04:32:26;;;;;;;8.88;4.82;;;;;;;13.19;76.75;101782.06;5114791;28;20024;-59
2023/09/15 04:34:52;;;;;;;8.05;5.15;;;;;;;13.17;76.92;101788.22;5114469;28;20028;-59
2023/09/15 04:37:22;;;;;;;7.00;5.00;;;;;;;13.11;76.68;101781.06;5114891;28;20562;-59
2023/09/15 04:39:49;;;;;;;9.88;4.97;;;;;;;13.08;77.51;101775.69;5114571;28;20076;-59
2023/09/15 04:42:15;;;;;;;9.98;5.28;;;;;;;13.09;77.28;101784.53;5114839;28;20075;-60
2023/09/15 04:44:41;;;;;;;6.70;4.63;;;;;;;13.04;77.23;101776.53;5114638;28;20032;-60
2023/09/15 04:47:06;;;;;;;6.45;4.57;;;;;;;12.99;77.39;101773.78;5114731;28;20031;-58
2023/09/15 04:49:32;;;;;;;6.85;4.82;;;;;;;12.98;77.99;101771.13;5114515;28;20028;-59
2023/09/15 04:51:58;;;;;;;8.70;4.80;;;;;;;12.94;77.81;101772.84;5096068;28;20024;-60
2023/09/15 04:54:23;;;;;;;8.27;4.85;;;;;;;12.92;77.72;101774.56;5114367;28;20038;-59
2023/09/15 04:56:49;;;;;;;6.00;5.03;;;;;;;12.90;77.67;101786.03;5114650;28;20098;-59
2023/09/15 04:59:17;;;;;;;9.77;5.40;;;;;;;12.89;78.30;101787.78;5114369;28;20387;-60
2023/09/15 05:01:46;;;;;;;9.13;5.93;;;;;;;12.90;78.79;101788.69;5096049;28;20110;-59
2023/09/15 05:04:18;;;;;;;12.65;5.85;;;;;;;12.81;79.50;101793.84;5114157;28;20526;-59
2023/09/15 05:06:43;;;;;;;9.73;6.40;;;;;;;12.75;80.05;101794.59;5113814;28;20034;-60
2023/09/15 05:09:10;;;;;;;12.63;6.20;;;;;;;12.78;80.39;101798.22;5113814;28;20028;-59
2023/09/15 05:11:36;;;;;;;14.43;7.50;;;;;;;12.87;81.27;101793.94;5113328;28;20106;-60
2023/09/15 05:14:01;;;;;;;10.43;6.97;;;;;;;12.89;80.68;101794.84;5113469;28;20484;-59
2023/09/15 05:16:28;;;;;;;10.77;6.82;;;;;;;12.88;80.99;101795.69;5113559;28;20492;-60
2023/09/15 05:18:53;;;;;;;11.40;6.90;;;;;;;12.83;81.07;101797.41;5113691;28;20065;-59
2023/09/15 05:21:18;;;;;;;11.95;7.30;;;;;;;12.94;81.24;101799.38;5113636;28;20031;-59
2023/09/15 05:23:44;;;;;;;11.90;7.70;;;;;;;13.02;81.84;101803.03;5113582;28;20028;-60
2023/09/15 05:26:09;;;;;;;12.52;8.00;;;;;;;13.04;82.09;101797.75;5113700;28;20527;-59
2023/09/15 05:28:35;;;;;;;11.13;7.45;;;;;;;13.17;82.03;101805.03;5095151;28;20463;-59
2023/09/15 05:31:00;;;;;;;14.13;7.88;;;;;;;13.23;81.84;101804.25;5113525;28;20055;-59
2023/09/15 05:33:26;;;;;;;12.82;7.57;;;;;;;13.17;81.38;101802.38;5113456;28;20122;-59
2023/09/15 05:35:56;;;;;;;15.85;7.68;;;;;;;13.16;81.75;101803.25;5113455;28;20023;-60
2023/09/15 05:38:22;;;;;;;11.15;7.25;;;;;;;13.19;81.87;101805.97;5113544;28;20016;-60
2023/09/15 05:40:48;;;;;;;18.08;12.15;;;;;;;13.17;81.44;101797.06;5113341;28;20020;-59
2023/09/15 05:43:13;;;;;;;12.05;8.13;;;;;;;13.14;82.13;101794.34;5113473;28;20106;-59
2023/09/15 05:45:39;;;;;;;12.00;7.88;;;;;;;13.21;82.16;101801.56;5113195;28;20028;-60
2023/09/15 05:48:04;;;;;;;13.50;7.90;;;;;;;13.30;81.84;101795.53;5095107;28;20024;-58
2023/09/15 05:50:29;;;;;;;11.80;7.40;;;;;;;13.30;81.67;101800.81;5113127;28;20118;-60
2023/09/15 05:52:55;;;;;;;16.05;7.63;;;;;;;13.42;81.07;101798.34;5113195;28;20072;-60
2023/09/15 05:55:20;;;;;;;10.98;7.50;;;;;;;13.58;81.78;101802.13;5094876;28;20024;-59
2023/09/15 05:57:46;;;;;;;14.20;7.57;;;;;;;13.71;80.96;101797.88;5113158;28;20024;-59
2023/09/15 06:00:11;;;;;;;13.73;7.40;;;;;;;13.84;81.20;101806.91;5113342;28;20038;-59
2023/09/15 06:02:37;;;;;;;12.02;7.30;;;;;;;14.00;80.76;101804.44;5113248;28;20361;-59
2023/09/15 06:05:02;;;;;;;12.60;7.57;;;;;;;14.20;80.74;101803.78;5113343;28;20107;-60
2023/09/15 06:07:28;;;;;;;12.93;7.95;;;;;;;14.33;80.49;101803.03;5112854;28;20028;-60
2023/09/15 06:09:53;;;;;;;10.65;7.40;;;;;;;14.43;80.20;101804.94;5113048;28;20039;-59
2023/09/15 06:12:18;;;;;;;12.80;8.00;;;;;;;14.52;80.25;101814.81;5112915;28;20070;-59
2023/09/15 06:14:45;;;;;;;19.13;11.52;;;;;;;14.62;80.09;101799.81;5112904;28;20388;-58
2023/09/15 06:17:12;;;;;;;14.50;7.63;;;;;;;14.76;79.60;101803.47;5112827;28;20031;-60
2023/09/15 06:19:38;;;;;;;14.02;7.80;;;;;;;14.85;80.02;101811.53;5094980;28;20085;-59
2023/09/15 06:22:05;;;;;;;14.00;7.45;;;;;;;14.94;79.31;101808.06;5112795;28;20089;-59
2023/09/15 06:24:30;;;;;;;12.68;7.90;;;;;;;15.07;78.56;101804.63;5114138;28;20481;-59
2023/09/15 06:26:56;;;;;;;12.00;7.80;;;;;;;15.30;78.38;101811.91;5116771;27;20073;-59
2023/09/15 06:29:21;;;;;;;15.40;7.78;;;;;;;15.48;78.00;101809.34;5117022;28;20035;-61
2023/09/15 06:31:47;;;;;;;19.25;8.00;;;;;;;15.68;77.80;101806.84;5117160;28;20047;-59
2023/09/15 06:34:13;;;;;;;12.52;7.78;;;;;;;15.84;77.01;101805.13;5115609;28;20102;-59
2023/09/15 06:36:39;;;;;;;11.18;8.10;;;;;;;15.99;76.78;101798.09;5116657;28;20088;-60
2023/09/15 06:39:06;;;;;;;12.15;7.45;;;;;;;16.12;76.05;101799.00;5117101;28;20059;-60
2023/09/15 06:41:32;;;;;;;12.93;8.00;;;;;;;16.24;75.61;101804.38;5116933;28;20388;-60
2023/09/15 06:43:57;;;;;;;13.73;7.78;;;;;;;16.40;75.38;101797.31;5116546;28;20492;-59
2023/09/15 06:46:23;;;;;;;11.57;8.07;;;;;;;16.47;74.90;101800.88;5116813;28;20063;-58
2023/09/15 06:48:48;;;;;;;14.65;7.85;;;;;;;16.53;75.00;101790.22;5116899;28;20433;-60
2023/09/15 06:51:14;;;;;;;11.82;7.72;;;;;;;16.55;74.60;101790.22;5116838;28;20026;-59
2023/09/15 06:53:39;;;;;;;11.35;7.70;;;;;;;16.39;75.67;101791.97;5116511;28;20032;-60
2023/09/15 06:56:05;;;;;;;15.93;7.93;;;;;;;16.34;75.97;101783.97;5116343;28;20024;-59
2023/09/15 06:58:30;;;;;;;15.48;7.88;;;;;;;16.55;76.16;101788.44;5116413;28;20107;-60
2023/09/15 07:00:56;;;;;;;11.40;7.63;;;;;;;16.74;76.11;101784.94;5116465;28;20036;-59
2023/09/15 07:03:22;;;;;;;13.05;8.20;;;;;;;16.88;74.49;101787.59;5116386;28;20016;-59
2023/09/15 07:05:47;;;;;;;12.82;7.82;;;;;;;17.09;74.05;101781.38;5116288;28;20028;-59
2023/09/15 07:08:12;;;;;;;10.35;7.50;;;;;;;17.26;73.22;101784.03;5116248;28;20042;-60
2023/09/15 07:10:38;;;;;;;14.23;7.45;;;;;;;17.40;72.81;101792.00;5116083;28;20024;-59
2023/09/15 07:13:03;;;;;;;13.32;7.10;;;;;;;17.55;72.26;101788.38;5116160;28;20104;-59
2023/09/15 07:15:32;;;;;;;12.15;7.60;;;;;;;17.73;72.53;101789.22;5097625;28;20024;-59
2023/09/15 07:17:57;;;;;;;11.73;7.18;;;;;;;17.81;71.89;101783.84;5116416;28;20031;-59
2023/09/15 07:20:23;;;;;;;13.38;7.18;;;;;;;18.06;71.64;101786.44;5097791;28;20377;-60
2023/09/15 07:22:48;;;;;;;10.30;7.25;;;;;;;18.16;70.44;101775.69;5116172;28;20059;-60
2023/09/15 07:25:14;;;;;;;12.52;7.22;;;;;;;18.22;71.21;101785.47;5116268;28;20028;-60
2023/09/15 07:27:39;;;;;;;14.75;7.35;;;;;;;18.36;69.91;101780.00;5115656;28;20044;-58
2023/09/15 07:30:05;;;;;;;11.65;6.72;;;;;;;18.62;70.43;101774.47;5115922;28;20030;-59
2023/09/15 07:32:30;;;;;;;11.45;6.53;;;;;;;18.76;69.07;101761.91;5115781;28;20020;-60
2023/09/15 07:34:56;;;;;;;12.45;7.32;;;;;;;18.92;68.25;101765.34;5115680;28;20106;-59
2023/09/15 07:37:21;;;;;;;12.02;7.18;;;;;;;19.01;68.31;101766.16;5115815;28;20434;-59
2023/09/15 07:39:47;;;;;;;14.65;7.25;;;;;;;19.12;67.61;101768.72;5115757;28;20027;-60
2023/09/15 07:42:12;;;;;;;12.75;6.70;;;;;;;19.34;66.90;101765.81;5115934;28;20024;-60
2023/09/15 07:44:38;;;;;;;11.63;6.80;;;;;;;19.60;66.36;101766.41;5115498;28;20518;-61
2023/09/15 07:47:06;;;;;;;15.48;7.03;;;;;;;19.84;65.44;101759.91;5115711;28;20074;-60
2023/09/15 07:49:32;;;;;;;10.82;6.50;;;;;;;20.12;64.03;101765.75;5115586;28;20030;-59
2023/09/15 07:51:57;;;;;;;10.93;6.68;;;;;;;20.38;63.78;101748.38;5115595;28;20028;-58
2023/09/15 07:54:24;;;;;;;10.93;6.82;;;;;;;20.52;63.16;101756.28;5115735;28;20119;-59
2023/09/15 07:56:50;;;;;;;15.18;7.05;;;;;;;20.84;62.58;101751.25;5115549;28;20039;-60
2023/09/15 07:59:15;;;;;;;12.55;6.55;;;;;;;20.79;61.61;101750.44;5115326;28;20079;-60
2023/09/15 08:01:40;;;;;;;34.72;7.10;;;;;;;21.11;61.56;101755.25;5115419;28;20028;-59
2023/09/15 08:04:06;;;;;;;9.82;6.55;;;;;;;21.25;61.03;101753.19;5115473;28;20039;-60
2023/09/15 08:06:31;;;;;;;17.88;6.38;;;;;;;21.58;60.48;101756.13;5115215;28;20028;-58
2023/09/15 08:08:57;;;;;;;8.88;6.10;;;;;;;21.78;58.97;101757.53;5115208;28;20028;-60
2023/09/15 08:11:22;;;;;;;9.98;6.93;;;;;;;21.75;58.32;101751.31;5115404;28;20031;-60
2023/09/15 08:13:47;;;;;;;11.65;6.60;;;;;;;22.09;57.69;101747.88;5114786;28;20028;-60
2023/09/15 08:16:13;;;;;;;9.02;6.10;;;;;;;22.45;57.24;101748.88;5114947;28;20023;-59
2023/09/15 08:18:39;;;;;;;12.07;6.50;;;;;;;22.64;56.66;101743.00;5115015;28;20031;-60
2023/09/15 08:21:05;;;;;;;13.15;6.70;;;;;;;22.74;56.28;101752.66;5097170;28;20034;-59
2023/09/15 08:23:30;;;;;;;9.73;6.38;;;;;;;22.89;55.43;101749.53;5114963;28;20496;-59
2023/09/15 08:25:56;;;;;;;9.43;5.80;;;;;;;22.84;55.40;101742.50;5096541;28;20055;-61
2023/09/15 08:28:22;;;;;;;8.82;6.47;;;;;;;22.95;56.25;101740.44;5114730;28;20054;-60
2023/09/15 08:30:50;;;;;;;10.10;5.85;;;;;;;22.99;55.41;101740.31;5114781;28;20020;-59
2023/09/15 08:33:15;;;;;;;11.68;6.00;;;;;;;23.00;55.69;101738.53;5114717;28;20032;-59
2023/09/15 08:35:41;;;;;;;13.50;6.43;;;;;;;23.09;55.13;101735.59;5114885;28;20042;-60
2023/09/15 08:38:06;;;;;;;9.20;5.95;;;;;;;23.20;55.24;101741.56;5114662;28;20396;-60
2023/09/15 08:40:46;;;;;;;8.65;6.30;;;;;;;23.37;54.58;101745.59;5114732;28;20053;-60
2023/09/15 08:43:12;;;;;;;9.93;6.03;;;;;;;23.44;54.50;101747.22;5114620;28;20039;-60
2023/09/15 08:45:37;;;;;;;11.65;6.10;;;;;;;23.52;53.55;101745.19;5114541;28;20053;-60
2023/09/15 08:48:05;;;;;;;8.25;5.82;;;;;;;23.59;52.61;101743.16;5113704;28;20161;-59
2023/09/15 08:50:32;;;;;;;11.50;6.47;;;;;;;23.60;53.58;101742.25;5114175;28;20024;-59
2023/09/15 08:53:00;;;;;;;9.85;6.18;;;;;;;23.46;54.00;101727.34;5114418;28;20030;-60
2023/09/15 08:55:26;;;;;;;14.90;8.23;;;;;;;23.43;54.32;101734.66;5114540;28;20029;-60
2023/09/15 08:57:52;;;;;;;8.38;5.90;;;;;;;23.55;52.77;101728.88;5114203;28;20069;-60
2023/09/15 09:00:18;;;;;;;11.38;6.20;;;;;;;23.90;52.74;101725.19;5095728;28;20455;-59
2023/09/15 09:02:44;;;;;;;9.88;5.78;;;;;;;24.04;50.68;101727.44;5114020;28;20525;-60
2023/09/15 09:05:09;;;;;;;9.15;5.60;;;;;;;24.26;52.42;101730.34;5114127;28;20035;-60
2023/09/15 09:07:37;;;;;;;9.93;6.40;;;;;;;24.29;51.65;101730.25;5113967;28;20111;-60
2023/09/15 09:10:03;;;;;;;10.30;6.20;;;;;;;24.51;50.55;101716.97;5112713;28;20511;-60
2023/09/15 09:12:29;;;;;;;10.30;6.15;;;;;;;24.67;50.72;101729.03;5114010;28;20023;-59
2023/09/15 09:14:56;;;;;;;10.02;5.68;;;;;;;24.76;50.17;101727.81;5113614;28;20028;-60
2023/09/15 09:17:22;;;;;;;9.68;5.80;;;;;;;24.59;50.83;101735.63;5113814;28;20110;-61
2023/09/15 09:19:49;;;;;;;10.68;5.90;;;;;;;24.48;50.20;101720.63;5113932;28;20093;-60
2023/09/15 09:22:18;;;;;;;10.98;6.55;;;;;;;24.63;51.97;101721.97;5114050;28;20047;-60
2023/09/15 09:24:51;;;;;;;10.00;6.28;;;;;;;24.76;49.75;101724.25;5113661;28;20027;-59
2023/09/15 09:27:16;;;;;;;11.70;6.00;;;;;;;24.82;49.38;101718.63;5113669;28;20059;-60
2023/09/15 09:29:42;;;;;;;8.02;5.80;;;;;;;24.89;51.71;101715.66;5113755;28;20035;-60
2023/09/15 09:32:13;;;;;;;9.45;5.57;;;;;;;25.19;49.28;101720.94;5113673;28;20024;-60
2023/09/15 09:34:38;;;;;;;8.52;5.93;;;;;;;25.02;49.22;101716.09;5113861;28;20073;-60
2023/09/15 09:37:04;;;;;;;10.60;5.40;;;;;;;25.08;48.45;101713.19;5113492;28;20023;-59
2023/09/15 09:39:29;;;;;;;9.65;6.10;;;;;;;25.28;48.71;101722.44;5113780;28;20392;-59
2023/09/15 09:41:56;;;;;;;10.02;5.68;;;;;;;25.51;48.18;101718.84;5113772;28;20089;-59
2023/09/15 09:44:21;;;;;;;10.15;5.75;;;;;;;25.94;48.75;101704.56;5113202;28;20034;-59
2023/09/15 09:46:52;;;;;;;9.98;5.70;;;;;;;25.97;46.35;101710.75;5113508;28;20029;-60
2023/09/15 09:49:17;;;;;;;8.02;5.20;;;;;;;26.21;46.89;101708.03;5113528;28;20389;-61
2023/09/15 09:51:44;;;;;;;10.27;5.00;;;;;;;26.34;45.44;101701.16;5112998;28;20016;-60
2023/09/15 09:54:09;;;;;;;11.65;5.30;;;;;;;26.10;45.56;101703.03;5113213;28;20388;-61
2023/09/15 09:56:35;;;;;;;9.05;5.43;;;;;;;25.97;45.10;101704.47;5113263;28;20028;-60
2023/09/15 09:59:10;;;;;;;8.88;5.53;;;;;;;25.94;46.81;101704.56;5113273;28;20031;-60
2023/09/15 10:01:36;;;;;;;9.68;5.13;;;;;;;26.21;45.21;101699.88;5113496;28;20031;-60
2023/09/15 10:04:05;;;;;;;10.93;5.43;;;;;;;26.19;45.64;101707.19;5113043;28;20339;-60
2023/09/15 10:06:32;;;;;;;8.00;4.80;;;;;;;26.51;46.59;101703.19;5113094;28;20069;-60
2023/09/15 10:08:59;;;;;;;14.77;9.02;;;;;;;26.73;43.94;101686.00;5113006;28;20028;-59
2023/09/15 10:11:26;;;;;;;7.72;5.47;;;;;;;26.77;43.73;101693.06;5113018;28;20032;-61
2023/09/15 10:13:52;;;;;;;7.80;5.35;;;;;;;26.87;45.30;101678.13;5112321;28;20485;-60
2023/09/15 10:16:17;;;;;;;10.32;6.03;;;;;;;27.17;44.16;101684.06;5112920;28;20045;-61
2023/09/15 10:18:44;;;;;;;11.50;5.25;;;;;;;27.05;43.43;101679.13;5113344;28;20032;-61
2023/09/15 10:21:11;;;;;;;8.38;5.20;;;;;;;27.21;44.07;101677.53;5112436;28;20036;-59
2023/09/15 10:23:36;;;;;;;10.25;5.30;;;;;;;27.20;43.78;101673.06;5113074;28;20062;-60
2023/09/15 10:26:02;;;;;;;7.43;4.90;;;;;;;27.22;42.11;101668.44;5112770;28;20024;-61
2023/09/15 10:28:29;;;;;;;19.20;14.98;;;;;;;27.13;43.52;101667.03;5112566;28;20048;-61
2023/09/15 10:30:55;;;;;;;11.35;5.60;;;;;;;27.51;43.09;101663.50;5113020;28;20031;-60
2023/09/15 10:33:28;;;;;;;7.82;5.25;;;;;;;27.48;42.54;101660.91;5112800;28;20054;-61
2023/09/15 10:36:03;;;;;;;7.53;4.68;;;;;;;27.59;42.64;101661.31;5112947;28;20028;-60
2023/09/15 10:38:29;;;;;;;7.55;4.28;;;;;;;27.63;41.50;101669.22;5112731;28;20082;-60
2023/09/15 10:40:58;;;;;;;6.38;4.60;;;;;;;27.45;42.61;101661.94;5112742;28;20104;-61
2023/09/15 10:43:23;;;;;;;7.97;5.10;;;;;;;27.17;42.56;101644.22;5112834;28;20051;-60
2023/09/15 10:46:15;;;;;;;8.88;4.68;;;;;;;27.69;43.96;101646.31;5112686;28;20469;-60
2023/09/15 10:48:46;;;;;;;10.88;5.55;;;;;;;27.99;43.08;101657.56;5108722;28;20047;-61
2023/09/15 10:51:14;;;;;;;8.75;4.45;;;;;;;28.05;43.19;101660.00;5112658;28;20513;-60
2023/09/15 10:53:50;;;;;;;6.95;4.70;;;;;;;28.46;40.36;101640.72;5112478;28;20031;-61
2023/09/15 10:56:17;;;;;;;7.20;4.07;;;;;;;28.32;39.80;101640.53;5111742;28;20047;-61
2023/09/15 10:58:46;;;;;;;6.30;4.13;;;;;;;28.17;39.49;101648.50;5112533;28;20462;-60
2023/09/15 11:01:13;;;;;;;8.05;4.38;;;;;;;27.62;40.59;101633.97;5112539;28;20031;-61
2023/09/15 11:03:39;;;;;;;8.70;4.28;;;;;;;27.74;41.85;101628.00;5112471;28;20034;-61
2023/09/15 11:06:08;;;;;;;8.27;4.57;;;;;;;28.05;42.01;101621.97;5111512;28;20020;-61
2023/09/15 11:08:34;;;;;;;10.63;4.50;;;;;;;28.28;40.90;101625.34;5112286;28;20056;-61
2023/09/15 11:11:07;;;;;;;7.47;4.28;;;;;;;28.52;40.71;101623.22;5113331;28;20034;-62
2023/09/15 11:13:33;;;;;;;7.93;3.97;;;;;;;28.76;41.96;101629.22;5115312;28;20385;-61
2023/09/15 11:15:59;;;;;;;7.40;4.25;;;;;;;28.68;40.66;101616.88;5116302;28;20050;-61
2023/09/15 11:18:26;;;;;;;7.28;4.30;;;;;;;28.34;39.00;101620.44;5116353;28;20027;-60
2023/09/15 11:20:51;;;;;;;7.07;4.38;;;;;;;27.98;39.03;101612.34;5115994;28;20030;-61